Latest Coastal Weather Observations for Proserpine

IDQ60701

Issued at 10:25 am EST Thursday 2 October 2014 (issued every 10 minutes, with the page automatically refreshed every 10 minutes)

About coastal observations | Map of coastal stations | Coastal observations for QLD | Marine services | Other Formats
Station Details ID: 033247 Name: PROSERPINE AIRPORT Lat: -20.49 Lon: 148.56 Height: 19.7 m
Data from the previous 72 hours. | See also: Recent months at Proserpine
Date/Time
EST
Temp

°C
Wind Pressure Rain
since 9am
mm
Weather Cloud Vis
km
Sea
Height
m
Swell
Dir
 
Speed
knots
Gust
knots
hPa Trend Height
m
Period
s
Dir
02/10:00am 25.4 ESE 5 10 1018.1 - 0.0 - - 10 - - - -
02/09:30am 24.8 SE 3 7 1018.0 - 0.0 - - 10 - - - -
02/09:00am 23.3 E 4 7 1018.0 - 0.0 Haze - 20 - - - -
02/08:30am 22.3 SSW 2 4 1017.9 - 0.0 - - 10 - - - -
02/08:00am 19.6 W 2 4 1017.8 - 0.0 - - 10 - - - -
02/07:30am 16.8 WNW 2 4 1017.6 - 0.0 - - 10 - - - -
02/07:00am 15.0 CALM 0 1 1017.3 - 0.0 - - 10 - - - -
02/06:30am 12.1 SW 1 3 1017.1 - 0.0 - - 10 - - - -
02/06:00am 10.7 CALM 0 0 1016.7 - 0.0 - - 10 - - - -
02/05:30am 10.9 CALM 0 0 1016.6 - 0.0 - - 10 - - - -
02/05:20am 11.2 CALM 0 0 1016.5 - 0.0 - - 10 - - - -
02/05:00am 12.0 CALM 0 0 1016.4 - 0.0 - - 3 - - - -
02/04:59am 11.9 CALM 0 0 1016.3 - 0.0 - - 3 - - - -
02/04:30am 11.8 CALM 0 0 1015.9 - 0.0 - - 10 - - - -
02/04:00am 11.5 CALM 0 0 1015.8 - 0.0 - - 10 - - - -
02/03:30am 11.9 CALM 0 0 1015.8 - 0.0 - - 10 - - - -
02/03:00am 12.2 CALM 0 0 1015.7 - 0.0 - - 10 - - - -
02/02:30am 12.4 CALM 0 0 1015.9 - 0.0 - - 10 - - - -
02/02:00am 12.5 CALM 0 0 1016.2 - 0.0 - - 10 - - - -
02/01:30am 13.3 CALM 0 0 1016.4 - 0.0 - - 10 - - - -
02/01:00am 13.4 CALM 0 0 1016.6 - 0.0 - - 10 - - - -
02/12:30am 13.9 CALM 0 0 1016.6 - 0.0 - - 10 - - - -
02/12:00am 13.8 SW 0 0 1016.6 - 0.0 - - 10 - - - -
 
Date/Time
EST
Temp

°C
Wind Pressure Rain
since 9am
mm
Weather Cloud Vis
km
Sea
Height
m
Swell
Dir
 
Speed
knots
Gust
knots
hPa Trend Height
m
Period
s
Dir
01/11:30pm 14.5 CALM 0 0 1016.8 - 0.0 - - 10 - - - -
01/11:00pm 14.2 CALM 0 0 1016.7 - 0.0 - - 10 - - - -
01/10:30pm 14.6 CALM 0 3 1016.8 - 0.0 - - 10 - - - -
01/10:00pm 15.8 SW 2 4 1017.0 - 0.0 - - 10 - - - -
01/09:30pm 16.7 SSW 3 4 1017.1 - 0.0 - - 10 - - - -
01/09:00pm 16.2 S 3 5 1017.1 - 0.0 - - 10 - - - -
01/08:30pm 18.3 SSE 4 5 1017.0 - 0.0 - - 10 - - - -
01/08:00pm 18.3 S 4 5 1016.7 - 0.0 - - 10 - - - -
01/07:30pm 19.0 SSE 3 4 1016.4 - 0.0 - - 10 - - - -
01/07:00pm 20.2 SE 4 4 1016.2 - 0.0 - - 10 - - - -
01/06:30pm 20.7 SE 5 6 1015.9 - 0.0 - - 10 - - - -
01/06:00pm 21.9 SE 7 8 1015.5 - 0.0 - - 10 - - - -
01/05:30pm 23.8 SE 8 11 1015.4 - 0.0 - - 10 - - - -
01/05:00pm 25.2 ESE 10 13 1015.2 - 0.0 - - 10 - - - -
01/04:30pm 26.0 ESE 10 13 1015.2 - 0.0 - - 10 - - - -
01/04:00pm 26.6 ESE 9 13 1015.2 - 0.0 - - 10 - - - -
01/03:30pm 26.6 E 10 14 1015.3 - 0.0 - - 10 - - - -
01/03:00pm 27.4 ESE 9 13 1015.4 - 0.0 Smoke Clear 16 - - - -
01/02:30pm 27.6 E 10 15 1015.7 - 0.0 - - 10 - - - -
01/02:00pm 26.9 E 12 18 1016.1 - 0.0 - - 10 - - - -
01/01:30pm 27.4 E 11 17 1016.5 - 0.0 - - 10 - - - -
01/01:00pm 26.8 ESE 10 18 1017.0 - 0.0 - - 10 - - - -
01/12:30pm 26.9 E 9 15 1017.4 - 0.0 - - 10 - - - -
01/12:00pm 26.3 E 11 15 1018.0 - 0.0 - - 10 - - - -
01/11:30am 26.1 SE 9 15 1018.5 - 0.0 - - 10 - - - -
01/11:00am 25.6 ESE 8 12 1019.1 - 0.0 - - 10 - - - -
01/10:30am 24.9 SE 10 17 1019.4 - 0.0 - - 10 - - - -
01/10:00am 25.1 E 9 13 1019.5 - 0.0 - - 10 - - - -
01/09:30am 24.6 SE 7 13 1019.6 - 0.0 - - 10 - - - -
01/09:00am 23.8 E 9 12 1019.6 - 0.0 Fine - 30 - - - -
01/08:30am 23.8 SE 6 10 1019.7 - 0.0 - - 10 - - - -
01/08:00am 20.9 S 3 5 1019.7 - 0.0 - - 10 - - - -
01/07:30am 18.3 ESE 3 4 1019.5 - 0.0 - - 10 - - - -
01/07:00am 15.6 SSW 4 6 1019.0 - 0.0 - - 10 - - - -
01/06:30am 13.9 SW 4 6 1018.6 - 0.0 - - 10 - - - -
01/06:00am 12.3 SW 4 5 1018.3 - 0.0 - - 10 - - - -
01/05:30am 12.3 SW 3 5 1018.4 - 0.0 - - 10 - - - -
01/05:00am 12.4 SW 3 4 1018.2 - 0.0 - - 10 - - - -
01/04:30am 12.9 SW 4 5 1018.0 - 0.0 - - 10 - - - -
01/04:00am 13.0 SSW 3 6 1017.8 - 0.0 - - 10 - - - -
01/03:30am 14.4 CALM 0 0 1017.8 - 0.0 - Partly cloudy 10 - - - -
01/03:00am 14.2 CALM 0 0 1017.7 - 0.0 - Partly cloudy 10 - - - -
01/02:30am 14.0 SSW 2 4 1017.8 - 0.0 - Partly cloudy 10 - - - -
01/02:00am 13.4 SW 4 5 1018.2 - 0.0 - - 10 - - - -
01/01:30am 13.7 SSW 3 4 1018.6 - 0.0 - - 10 - - - -
01/01:00am 13.9 SSW 3 4 1018.8 - 0.0 - - 9 - - - -
01/12:30am 13.7 CALM 0 0 1019.1 - 0.0 - - 10 - - - -
01/12:00am 14.8 SSW 6 6 1019.2 - 0.0 - - 10 - - - -
 
Date/Time
EST
Temp

°C
Wind Pressure Rain
since 9am
mm
Weather Cloud Vis
km
Sea
Height
m
Swell
Dir
 
Speed
knots
Gust
knots
hPa Trend Height
m
Period
s
Dir
30/11:30pm 13.9 SW 4 5 1019.3 - 0.0 - - 10 - - - -
30/11:00pm 13.8 SW 4 5 1019.5 - 0.0 - - 10 - - - -
30/10:30pm 14.7 WSW 3 5 1019.6 - 0.0 - - 10 - - - -
30/10:00pm 16.7 S 5 6 1019.7 - 0.0 - - 10 - - - -
30/09:30pm 17.6 ESE 5 6 1019.7 - 0.0 - - 10 - - - -
30/09:00pm 17.4 ESE 6 6 1019.3 - 0.0 - - 10 - - - -
30/08:30pm 18.3 E 8 9 1019.2 - 0.0 - - 10 - - - -
30/08:00pm 18.9 E 7 8 1019.2 - 0.0 - - 10 - - - -
30/07:30pm 18.9 E 6 8 1018.7 - 0.0 - - 10 - - - -
30/07:00pm 19.2 E 3 5 1018.3 - 0.0 - - 10 - - - -
30/06:30pm 20.2 ESE 5 7 1017.9 - 0.0 - - 10 - - - -
30/06:00pm 21.8 E 7 10 1017.4 - 0.0 - - 10 - - - -
30/05:30pm 23.1 E 11 14 1017.0 - 0.0 - - 10 - - - -
30/05:00pm 24.1 E 12 15 1016.8 - 0.0 - - 10 - - - -
30/04:30pm 24.8 E 11 16 1016.6 - 0.0 - - 10 - - - -
30/04:00pm 25.3 ESE 12 18 1016.5 - 0.0 - - 10 - - - -
30/03:30pm 25.9 E 11 16 1016.6 - 0.0 - - 10 - - - -
30/03:00pm 26.4 E 10 16 1016.6 - 0.0 Fine Mostly clear 25 - - - -
30/02:30pm 26.0 E 11 21 1016.9 - 0.0 - - 10 - - - -
30/02:00pm 26.3 ESE 12 16 1017.3 - 0.0 - - 10 - - - -
30/01:30pm 25.6 SE 13 20 1017.6 - 0.0 - - 10 - - - -
30/01:00pm 25.4 ESE 11 20 1018.0 - 0.0 - Partly cloudy 10 - - - -
30/12:30pm 25.9 ESE 10 17 1018.5 - 0.0 - Partly cloudy 10 - - - -
30/12:00pm 25.9 ESE 10 14 1018.9 - 0.0 - Partly cloudy 10 - - - -
30/11:30am 25.2 ESE 9 17 1019.5 - 0.0 - Partly cloudy 10 - - - -
30/11:00am 25.3 SE 12 17 1020.0 - 0.0 - Partly cloudy 10 - - - -
30/10:30am 24.9 E 11 17 1020.5 - 0.0 - Partly cloudy 10 - - - -
30/10:00am 24.7 ESE 9 16 1020.8 - 0.0 - Partly cloudy 10 - - - -
30/09:30am 25.4 ESE 9 17 1021.0 - 0.0 - Partly cloudy 10 - - - -
30/09:00am 23.6 SE 9 15 1020.8 - 0.0 Fine Partly cloudy 30 - - - -
30/08:30am 23.2 SE 6 11 1021.0 - 0.0 - - 10 - - - -
30/08:00am 21.9 SSE 6 8 1020.7 - 0.0 - - 10 - - - -
30/07:30am 19.4 S 4 5 1020.5 - 0.0 - - 10 - - - -
30/07:00am 16.9 SSW 2 4 1020.2 - 0.0 - - 10 - - - -
30/06:30am 14.7 SE 2 5 1019.9 - 0.0 - - 10 - - - -
30/06:00am 14.0 SSW 3 5 1019.2 - 0.0 - - 10 - - - -
30/05:30am 13.9 SW 5 6 1019.1 - 0.0 - - 10 - - - -
30/05:00am 15.0 S 7 8 1018.7 - 0.0 - - 10 - - - -
30/04:30am 16.4 SSE 8 10 1018.4 - 0.0 - - 10 - - - -
30/04:00am 14.9 S 6 7 1018.3 - 0.0 - - 10 - - - -
30/03:30am 15.2 SSW 6 6 1018.4 - 0.0 - - 10 - - - -
30/03:00am 15.6 SSW 7 7 1018.4 - 0.0 - Mostly clear 10 - - - -
30/02:30am 15.5 SSW 6 7 1018.5 - 0.0 - - 10 - - - -
30/02:00am 16.1 SSW 5 6 1018.7 - 0.0 - Partly cloudy 10 - - - -
30/01:30am 16.3 SSW 5 6 1018.9 - 0.0 - Partly cloudy 10 - - - -
30/01:00am 17.0 S 5 8 1019.1 - 0.0 - Partly cloudy 10 - - - -
30/12:30am 17.3 S 5 7 1019.3 - 0.0 - Partly cloudy 10 - - - -
30/12:00am 18.2 S 6 7 1019.5 - 0.0 - Partly cloudy 10 - - - -
 
Date/Time
EST
Temp

°C
Wind Pressure Rain
since 9am
mm
Weather Cloud Vis
km
Sea
Height
m
Swell
Dir
 
Speed
knots
Gust
knots
hPa Trend Height
m
Period
s
Dir
29/11:30pm 18.4 S 6 7 1019.8 - 0.0 - Partly cloudy 10 - - - -
29/11:00pm 18.2 S 6 7 1019.8 - 0.0 - Partly cloudy 10 - - - -
29/10:30pm 17.4 SSW 6 7 1019.8 - 0.0 - Partly cloudy 10 - - - -
29/10:00pm 17.7 S 6 7 1019.9 - 0.0 - Partly cloudy 10 - - - -
29/09:30pm 17.6 S 4 5 1019.9 - 0.0 - Partly cloudy 10 - - - -
29/09:00pm 18.0 S 5 6 1019.6 - 0.0 - Partly cloudy 10 - - - -
29/08:30pm 18.7 S 4 6 1019.5 - 0.0 - - 10 - - - -
29/08:00pm 19.1 SE 5 6 1019.1 - 0.0 - - 10 - - - -
29/07:30pm 19.2 ESE 6 7 1018.7 - 0.0 - - 10 - - - -
29/07:00pm 20.0 SE 5 6 1018.3 - 0.0 - Partly cloudy 10 - - - -
29/06:30pm 20.5 ESE 5 7 1018.0 - 0.0 - - 10 - - - -
29/06:00pm 21.8 E 7 11 1017.4 - 0.0 - - 10 - - - -
29/05:30pm 22.6 E 10 14 1017.2 - 0.0 - - 10 - - - -
29/05:00pm 24.0 ESE 10 15 1016.9 - 0.0 - - 10 - - - -
29/04:30pm 24.2 E 11 15 1016.6 - 0.0 - - 10 - - - -
29/04:00pm 24.7 ESE 11 16 1016.5 - 0.0 - - 10 - - - -
29/03:30pm 25.0 E 11 15 1016.5 - 0.0 - Partly cloudy 10 - - - -
29/03:00pm 25.7 E 13 18 1016.4 - 0.0 Haze Partly cloudy 20 - - - -
29/02:30pm 24.4 E 13 19 1016.8 - 0.0 - Partly cloudy 10 - - - -
29/02:00pm 26.3 ESE 13 19 1017.1 - 0.0 - Partly cloudy 10 - - - -
29/01:30pm 25.8 ESE 13 19 1017.4 - 0.0 - - 10 - - - -
29/01:00pm 26.1 ESE 13 19 1017.9 - 0.0 - Partly cloudy 10 - - - -
29/12:30pm 26.4 ESE 12 20 1018.1 - 0.0 - Partly cloudy 10 - - - -
29/12:00pm 26.0 ESE 13 19 1018.5 - 0.0 - Mostly clear 10 - - - -
29/11:30am 24.7 ESE 13 17 1018.9 - 0.0 - Cloudy 10 - - - -
29/11:00am 26.8 ESE 11 18 1019.2 - 0.0 - Partly cloudy 10 - - - -
29/10:30am 25.5 ESE 12 17 1019.4 - 0.0 - Partly cloudy 10 - - - -

Other Formats:

Comma delimited format used in spreadsheet applications
http://www.bom.gov.au/fwo/IDQ60701/IDQ60701.94365.axf

JavaScript Object Notation format (JSON) in row-major order
http://www.bom.gov.au/fwo/IDQ60701/IDQ60701.94365.json